sensor_id;sensor_type;location;lat;lon;timestamp;P1;durP1;ratioP1;P2;durP2;ratioP2
37609;SDS011;23457;51.966;8.230;2022-09-09T00:00:21;1.85;;;0.90;;
37609;SDS011;23457;51.966;8.230;2022-09-09T00:08:14;3.35;;;1.25;;
37609;SDS011;23457;51.966;8.230;2022-09-09T00:10:56;3.08;;;1.00;;
37609;SDS011;23457;51.966;8.230;2022-09-09T00:13:32;1.83;;;0.88;;
37609;SDS011;23457;51.966;8.230;2022-09-09T00:16:17;2.33;;;1.10;;
37609;SDS011;23457;51.966;8.230;2022-09-09T00:21:22;4.80;;;1.10;;
37609;SDS011;23457;51.966;8.230;2022-09-09T00:23:57;3.75;;;0.90;;
37609;SDS011;23457;51.966;8.230;2022-09-09T00:31:40;4.05;;;1.02;;
37609;SDS011;23457;51.966;8.230;2022-09-09T00:34:13;5.15;;;1.05;;
37609;SDS011;23457;51.966;8.230;2022-09-09T00:36:43;7.70;;;1.40;;
37609;SDS011;23457;51.966;8.230;2022-09-09T00:39:23;5.13;;;1.10;;
37609;SDS011;23457;51.966;8.230;2022-09-09T00:42:16;4.00;;;1.00;;
37609;SDS011;23457;51.966;8.230;2022-09-09T00:44:48;4.00;;;0.93;;
37609;SDS011;23457;51.966;8.230;2022-09-09T00:50:21;2.20;;;1.00;;
37609;SDS011;23457;51.966;8.230;2022-09-09T00:58:32;5.45;;;1.30;;
37609;SDS011;23457;51.966;8.230;2022-09-09T01:01:04;8.75;;;1.50;;
37609;SDS011;23457;51.966;8.230;2022-09-09T01:03:41;3.28;;;1.40;;
37609;SDS011;23457;51.966;8.230;2022-09-09T01:06:31;5.38;;;1.35;;
37609;SDS011;23457;51.966;8.230;2022-09-09T01:12:25;4.38;;;1.40;;
37609;SDS011;23457;51.966;8.230;2022-09-09T01:15:10;4.82;;;1.20;;
37609;SDS011;23457;51.966;8.230;2022-09-09T01:17:52;6.88;;;1.40;;
37609;SDS011;23457;51.966;8.230;2022-09-09T01:20:29;4.03;;;1.20;;
37609;SDS011;23457;51.966;8.230;2022-09-09T01:28:44;5.85;;;0.95;;
37609;SDS011;23457;51.966;8.230;2022-09-09T01:31:15;3.97;;;1.50;;
37609;SDS011;23457;51.966;8.230;2022-09-09T01:33:45;4.60;;;1.30;;
37609;SDS011;23457;51.966;8.230;2022-09-09T01:36:15;5.80;;;1.42;;
37609;SDS011;23457;51.966;8.230;2022-09-09T01:38:50;2.72;;;1.10;;
37609;SDS011;23457;51.966;8.230;2022-09-09T01:41:16;2.22;;;0.82;;
37609;SDS011;23457;51.966;8.230;2022-09-09T01:43:43;4.60;;;1.35;;
37609;SDS011;23457;51.966;8.230;2022-09-09T01:46:09;2.78;;;1.25;;
37609;SDS011;23457;51.966;8.230;2022-09-09T01:48:38;4.97;;;1.20;;
37609;SDS011;23457;51.966;8.230;2022-09-09T01:51:07;2.75;;;1.10;;
37609;SDS011;23457;51.966;8.230;2022-09-09T02:04:41;3.15;;;1.00;;
37609;SDS011;23457;51.966;8.230;2022-09-09T02:10:02;5.75;;;1.00;;
37609;SDS011;23457;51.966;8.230;2022-09-09T02:12:37;4.00;;;1.13;;
37609;SDS011;23457;51.966;8.230;2022-09-09T02:15:44;4.32;;;1.13;;
37609;SDS011;23457;51.966;8.230;2022-09-09T02:18:06;4.38;;;0.90;;
37609;SDS011;23457;51.966;8.230;2022-09-09T02:20:39;1.63;;;0.90;;
37609;SDS011;23457;51.966;8.230;2022-09-09T02:23:08;2.53;;;1.10;;
37609;SDS011;23457;51.966;8.230;2022-09-09T02:25:37;1.80;;;1.10;;
37609;SDS011;23457;51.966;8.230;2022-09-09T02:28:06;1.80;;;1.08;;
37609;SDS011;23457;51.966;8.230;2022-09-09T02:30:35;4.10;;;1.13;;
37609;SDS011;23457;51.966;8.230;2022-09-09T02:33:04;2.60;;;1.15;;
37609;SDS011;23457;51.966;8.230;2022-09-09T02:35:36;2.22;;;1.10;;
37609;SDS011;23457;51.966;8.230;2022-09-09T02:38:05;3.35;;;1.00;;
37609;SDS011;23457;51.966;8.230;2022-09-09T02:40:35;2.97;;;1.08;;
37609;SDS011;23457;51.966;8.230;2022-09-09T02:43:01;2.80;;;1.00;;
37609;SDS011;23457;51.966;8.230;2022-09-09T02:45:32;4.40;;;1.02;;
37609;SDS011;23457;51.966;8.230;2022-09-09T02:48:10;2.60;;;1.48;;
37609;SDS011;23457;51.966;8.230;2022-09-09T02:53:21;2.35;;;1.25;;
37609;SDS011;23457;51.966;8.230;2022-09-09T02:58:30;3.15;;;1.00;;
37609;SDS011;23457;51.966;8.230;2022-09-09T03:00:56;2.10;;;0.90;;
37609;SDS011;23457;51.966;8.230;2022-09-09T03:03:24;3.22;;;1.20;;
37609;SDS011;23457;51.966;8.230;2022-09-09T03:05:51;4.88;;;1.20;;
37609;SDS011;23457;51.966;8.230;2022-09-09T03:08:17;2.33;;;1.10;;
37609;SDS011;23457;51.966;8.230;2022-09-09T03:10:44;1.38;;;1.00;;
37609;SDS011;23457;51.966;8.230;2022-09-09T03:13:10;3.17;;;1.45;;
37609;SDS011;23457;51.966;8.230;2022-09-09T03:15:39;2.45;;;1.40;;
37609;SDS011;23457;51.966;8.230;2022-09-09T03:18:05;2.85;;;1.50;;
37609;SDS011;23457;51.966;8.230;2022-09-09T03:20:32;4.53;;;1.83;;
37609;SDS011;23457;51.966;8.230;2022-09-09T03:22:59;4.88;;;1.40;;
37609;SDS011;23457;51.966;8.230;2022-09-09T03:25:26;2.63;;;1.55;;
37609;SDS011;23457;51.966;8.230;2022-09-09T03:27:54;2.63;;;1.45;;
37609;SDS011;23457;51.966;8.230;2022-09-09T03:30:22;5.00;;;1.35;;
37609;SDS011;23457;51.966;8.230;2022-09-09T03:32:50;3.55;;;1.20;;
37609;SDS011;23457;51.966;8.230;2022-09-09T03:35:16;3.63;;;1.45;;
37609;SDS011;23457;51.966;8.230;2022-09-09T03:37:43;3.45;;;1.17;;
37609;SDS011;23457;51.966;8.230;2022-09-09T03:40:10;3.30;;;1.33;;
37609;SDS011;23457;51.966;8.230;2022-09-09T03:42:37;2.58;;;1.60;;
37609;SDS011;23457;51.966;8.230;2022-09-09T03:45:05;4.70;;;1.50;;
37609;SDS011;23457;51.966;8.230;2022-09-09T03:47:35;3.00;;;1.30;;
37609;SDS011;23457;51.966;8.230;2022-09-09T03:50:01;2.58;;;1.42;;
37609;SDS011;23457;51.966;8.230;2022-09-09T03:52:28;7.20;;;1.90;;
37609;SDS011;23457;51.966;8.230;2022-09-09T03:54:55;2.42;;;1.40;;
37609;SDS011;23457;51.966;8.230;2022-09-09T03:57:22;3.38;;;1.60;;
37609;SDS011;23457;51.966;8.230;2022-09-09T03:59:49;5.70;;;1.30;;
37609;SDS011;23457;51.966;8.230;2022-09-09T04:02:15;3.83;;;1.38;;
37609;SDS011;23457;51.966;8.230;2022-09-09T04:04:42;5.25;;;1.75;;
37609;SDS011;23457;51.966;8.230;2022-09-09T04:07:08;6.15;;;1.80;;
37609;SDS011;23457;51.966;8.230;2022-09-09T04:09:35;4.63;;;1.33;;
37609;SDS011;23457;51.966;8.230;2022-09-09T04:12:01;6.15;;;1.60;;
37609;SDS011;23457;51.966;8.230;2022-09-09T04:14:28;8.40;;;1.77;;
37609;SDS011;23457;51.966;8.230;2022-09-09T04:16:55;6.20;;;1.55;;
37609;SDS011;23457;51.966;8.230;2022-09-09T04:19:24;5.60;;;1.30;;
37609;SDS011;23457;51.966;8.230;2022-09-09T04:21:50;4.90;;;1.42;;
37609;SDS011;23457;51.966;8.230;2022-09-09T04:24:17;6.05;;;1.65;;
37609;SDS011;23457;51.966;8.230;2022-09-09T04:26:44;5.18;;;2.00;;
37609;SDS011;23457;51.966;8.230;2022-09-09T04:29:11;3.25;;;1.10;;
37609;SDS011;23457;51.966;8.230;2022-09-09T04:31:38;4.55;;;1.40;;
37609;SDS011;23457;51.966;8.230;2022-09-09T04:34:11;5.57;;;1.40;;
37609;SDS011;23457;51.966;8.230;2022-09-09T04:39:05;6.28;;;1.10;;
37609;SDS011;23457;51.966;8.230;2022-09-09T04:41:32;5.18;;;1.30;;
37609;SDS011;23457;51.966;8.230;2022-09-09T04:43:58;2.88;;;1.25;;
37609;SDS011;23457;51.966;8.230;2022-09-09T04:46:27;4.25;;;1.42;;
37609;SDS011;23457;51.966;8.230;2022-09-09T04:48:53;5.80;;;1.60;;
37609;SDS011;23457;51.966;8.230;2022-09-09T04:51:20;3.67;;;1.25;;
37609;SDS011;23457;51.966;8.230;2022-09-09T04:53:47;2.70;;;1.30;;
37609;SDS011;23457;51.966;8.230;2022-09-09T04:56:15;2.95;;;1.40;;
37609;SDS011;23457;51.966;8.230;2022-09-09T04:58:42;7.72;;;1.52;;
37609;SDS011;23457;51.966;8.230;2022-09-09T05:01:16;5.20;;;1.35;;
37609;SDS011;23457;51.966;8.230;2022-09-09T05:03:45;2.92;;;1.17;;
37609;SDS011;23457;51.966;8.230;2022-09-09T05:06:21;5.63;;;1.65;;
37609;SDS011;23457;51.966;8.230;2022-09-09T05:08:48;3.35;;;1.52;;
37609;SDS011;23457;51.966;8.230;2022-09-09T05:11:19;4.25;;;1.25;;
37609;SDS011;23457;51.966;8.230;2022-09-09T05:13:49;4.35;;;1.42;;
37609;SDS011;23457;51.966;8.230;2022-09-09T05:16:16;4.28;;;1.23;;
37609;SDS011;23457;51.966;8.230;2022-09-09T05:18:43;6.75;;;1.45;;
37609;SDS011;23457;51.966;8.230;2022-09-09T05:21:11;5.35;;;1.65;;
37609;SDS011;23457;51.966;8.230;2022-09-09T05:23:38;4.30;;;1.20;;
37609;SDS011;23457;51.966;8.230;2022-09-09T05:26:05;3.83;;;1.38;;
37609;SDS011;23457;51.966;8.230;2022-09-09T05:28:34;4.40;;;1.60;;
37609;SDS011;23457;51.966;8.230;2022-09-09T05:31:03;8.23;;;1.60;;
37609;SDS011;23457;51.966;8.230;2022-09-09T05:33:39;4.97;;;1.55;;
37609;SDS011;23457;51.966;8.230;2022-09-09T05:36:10;5.90;;;1.40;;
37609;SDS011;23457;51.966;8.230;2022-09-09T05:38:41;4.80;;;1.58;;
37609;SDS011;23457;51.966;8.230;2022-09-09T05:41:08;4.07;;;1.38;;
37609;SDS011;23457;51.966;8.230;2022-09-09T05:43:37;3.75;;;1.30;;
37609;SDS011;23457;51.966;8.230;2022-09-09T05:46:05;2.35;;;1.30;;
37609;SDS011;23457;51.966;8.230;2022-09-09T05:48:34;3.30;;;1.15;;
37609;SDS011;23457;51.966;8.230;2022-09-09T05:53:30;5.35;;;1.20;;
37609;SDS011;23457;51.966;8.230;2022-09-09T05:56:07;4.15;;;1.25;;
37609;SDS011;23457;51.966;8.230;2022-09-09T05:58:38;6.65;;;1.27;;
37609;SDS011;23457;51.966;8.230;2022-09-09T06:01:08;4.13;;;1.25;;
37609;SDS011;23457;51.966;8.230;2022-09-09T06:03:38;6.82;;;1.40;;
37609;SDS011;23457;51.966;8.230;2022-09-09T06:06:07;3.83;;;1.20;;
37609;SDS011;23457;51.966;8.230;2022-09-09T06:08:35;5.07;;;1.08;;
37609;SDS011;23457;51.966;8.230;2022-09-09T06:13:32;4.20;;;1.17;;
37609;SDS011;23457;51.966;8.230;2022-09-09T06:15:59;6.18;;;1.30;;
37609;SDS011;23457;51.966;8.230;2022-09-09T06:18:26;5.97;;;1.30;;
37609;SDS011;23457;51.966;8.230;2022-09-09T06:21:03;5.65;;;1.65;;
37609;SDS011;23457;51.966;8.230;2022-09-09T06:23:31;7.53;;;1.65;;
37609;SDS011;23457;51.966;8.230;2022-09-09T06:26:11;6.68;;;1.30;;
37609;SDS011;23457;51.966;8.230;2022-09-09T06:28:46;6.85;;;1.55;;
37609;SDS011;23457;51.966;8.230;2022-09-09T06:31:14;7.07;;;1.63;;
37609;SDS011;23457;51.966;8.230;2022-09-09T06:33:43;4.57;;;1.23;;
37609;SDS011;23457;51.966;8.230;2022-09-09T06:36:14;5.72;;;1.45;;
37609;SDS011;23457;51.966;8.230;2022-09-09T06:38:44;6.65;;;1.27;;
37609;SDS011;23457;51.966;8.230;2022-09-09T06:41:12;7.07;;;1.52;;
37609;SDS011;23457;51.966;8.230;2022-09-09T06:43:40;5.43;;;1.85;;
37609;SDS011;23457;51.966;8.230;2022-09-09T06:46:11;6.20;;;1.75;;
37609;SDS011;23457;51.966;8.230;2022-09-09T06:48:38;4.78;;;1.20;;
37609;SDS011;23457;51.966;8.230;2022-09-09T06:53:42;4.13;;;1.10;;
37609;SDS011;23457;51.966;8.230;2022-09-09T06:58:43;7.18;;;1.50;;
37609;SDS011;23457;51.966;8.230;2022-09-09T07:01:13;6.53;;;1.50;;
37609;SDS011;23457;51.966;8.230;2022-09-09T07:03:42;4.13;;;1.40;;
37609;SDS011;23457;51.966;8.230;2022-09-09T07:06:14;6.00;;;1.33;;
37609;SDS011;23457;51.966;8.230;2022-09-09T07:08:48;5.95;;;1.38;;
37609;SDS011;23457;51.966;8.230;2022-09-09T07:11:22;6.90;;;1.30;;
37609;SDS011;23457;51.966;8.230;2022-09-09T07:13:51;7.25;;;2.15;;
37609;SDS011;23457;51.966;8.230;2022-09-09T07:16:19;6.80;;;1.50;;
37609;SDS011;23457;51.966;8.230;2022-09-09T07:18:47;5.07;;;1.63;;
37609;SDS011;23457;51.966;8.230;2022-09-09T07:21:14;5.15;;;1.60;;
37609;SDS011;23457;51.966;8.230;2022-09-09T07:23:40;4.35;;;1.50;;
37609;SDS011;23457;51.966;8.230;2022-09-09T07:26:12;4.05;;;1.27;;
37609;SDS011;23457;51.966;8.230;2022-09-09T07:28:40;6.53;;;1.30;;
37609;SDS011;23457;51.966;8.230;2022-09-09T07:31:12;9.50;;;1.58;;
37609;SDS011;23457;51.966;8.230;2022-09-09T07:33:42;6.90;;;1.27;;
37609;SDS011;23457;51.966;8.230;2022-09-09T07:36:12;3.53;;;1.33;;
37609;SDS011;23457;51.966;8.230;2022-09-09T07:38:41;4.38;;;1.50;;
37609;SDS011;23457;51.966;8.230;2022-09-09T07:41:19;9.70;;;1.80;;
37609;SDS011;23457;51.966;8.230;2022-09-09T07:43:56;6.78;;;1.52;;
37609;SDS011;23457;51.966;8.230;2022-09-09T07:46:23;4.53;;;1.42;;
37609;SDS011;23457;51.966;8.230;2022-09-09T07:48:55;7.07;;;1.17;;
37609;SDS011;23457;51.966;8.230;2022-09-09T07:51:23;3.97;;;1.40;;
37609;SDS011;23457;51.966;8.230;2022-09-09T07:53:56;6.82;;;1.83;;
37609;SDS011;23457;51.966;8.230;2022-09-09T07:56:25;3.55;;;1.10;;
37609;SDS011;23457;51.966;8.230;2022-09-09T07:58:53;7.65;;;1.42;;
37609;SDS011;23457;51.966;8.230;2022-09-09T08:01:23;7.07;;;1.80;;
37609;SDS011;23457;51.966;8.230;2022-09-09T08:03:55;7.72;;;1.60;;
37609;SDS011;23457;51.966;8.230;2022-09-09T08:06:27;6.00;;;1.67;;
37609;SDS011;23457;51.966;8.230;2022-09-09T08:08:55;4.57;;;1.20;;
37609;SDS011;23457;51.966;8.230;2022-09-09T08:11:25;7.72;;;1.67;;
37609;SDS011;23457;51.966;8.230;2022-09-09T08:13:53;5.70;;;1.70;;
37609;SDS011;23457;51.966;8.230;2022-09-09T08:16:31;6.47;;;1.25;;
37609;SDS011;23457;51.966;8.230;2022-09-09T08:19:00;8.38;;;1.40;;
37609;SDS011;23457;51.966;8.230;2022-09-09T08:21:27;6.72;;;1.30;;
37609;SDS011;23457;51.966;8.230;2022-09-09T08:23:56;6.35;;;1.20;;
37609;SDS011;23457;51.966;8.230;2022-09-09T08:26:27;5.82;;;1.30;;
37609;SDS011;23457;51.966;8.230;2022-09-09T08:28:56;6.63;;;1.30;;
37609;SDS011;23457;51.966;8.230;2022-09-09T08:31:29;3.95;;;1.15;;
37609;SDS011;23457;51.966;8.230;2022-09-09T08:34:06;5.32;;;1.42;;
37609;SDS011;23457;51.966;8.230;2022-09-09T08:36:38;8.48;;;1.58;;
37609;SDS011;23457;51.966;8.230;2022-09-09T08:39:09;3.75;;;1.17;;
37609;SDS011;23457;51.966;8.230;2022-09-09T08:41:42;6.72;;;1.30;;
37609;SDS011;23457;51.966;8.230;2022-09-09T08:52:31;6.43;;;1.83;;
37609;SDS011;23457;51.966;8.230;2022-09-09T08:55:02;6.20;;;1.80;;
37609;SDS011;23457;51.966;8.230;2022-09-09T08:57:51;4.78;;;1.15;;
37609;SDS011;23457;51.966;8.230;2022-09-09T09:00:20;6.07;;;1.33;;
37609;SDS011;23457;51.966;8.230;2022-09-09T09:02:53;7.03;;;1.45;;
37609;SDS011;23457;51.966;8.230;2022-09-09T09:05:36;6.15;;;1.20;;
37609;SDS011;23457;51.966;8.230;2022-09-09T09:10:59;2.45;;;0.95;;
37609;SDS011;23457;51.966;8.230;2022-09-09T09:13:34;3.83;;;1.20;;
37609;SDS011;23457;51.966;8.230;2022-09-09T09:18:59;5.50;;;1.45;;
37609;SDS011;23457;51.966;8.230;2022-09-09T09:24:20;6.50;;;1.10;;
37609;SDS011;23457;51.966;8.230;2022-09-09T09:26:52;6.95;;;1.35;;
37609;SDS011;23457;51.966;8.230;2022-09-09T09:31:58;4.20;;;1.48;;
37609;SDS011;23457;51.966;8.230;2022-09-09T09:34:28;3.75;;;1.13;;
37609;SDS011;23457;51.966;8.230;2022-09-09T09:36:59;2.75;;;1.42;;
37609;SDS011;23457;51.966;8.230;2022-09-09T09:39:33;8.05;;;1.67;;
37609;SDS011;23457;51.966;8.230;2022-09-09T09:42:24;6.38;;;1.20;;
37609;SDS011;23457;51.966;8.230;2022-09-09T09:44:51;4.15;;;1.02;;
37609;SDS011;23457;51.966;8.230;2022-09-09T09:47:18;4.07;;;1.35;;
37609;SDS011;23457;51.966;8.230;2022-09-09T09:52:26;5.60;;;1.40;;
37609;SDS011;23457;51.966;8.230;2022-09-09T09:54:55;5.40;;;1.30;;
37609;SDS011;23457;51.966;8.230;2022-09-09T09:57:24;5.90;;;1.23;;
37609;SDS011;23457;51.966;8.230;2022-09-09T10:02:44;4.87;;;1.23;;
37609;SDS011;23457;51.966;8.230;2022-09-09T10:05:16;5.88;;;1.05;;
37609;SDS011;23457;51.966;8.230;2022-09-09T10:08:08;4.85;;;1.10;;
37609;SDS011;23457;51.966;8.230;2022-09-09T10:10:40;7.43;;;1.10;;
37609;SDS011;23457;51.966;8.230;2022-09-09T10:19:03;6.43;;;1.45;;
37609;SDS011;23457;51.966;8.230;2022-09-09T10:24:31;6.55;;;1.27;;
37609;SDS011;23457;51.966;8.230;2022-09-09T10:30:03;6.22;;;1.52;;
37609;SDS011;23457;51.966;8.230;2022-09-09T10:38:42;5.28;;;1.13;;
37609;SDS011;23457;51.966;8.230;2022-09-09T10:44:18;9.70;;;1.98;;
37609;SDS011;23457;51.966;8.230;2022-09-09T10:52:15;8.95;;;1.42;;
37609;SDS011;23457;51.966;8.230;2022-09-09T10:54:49;6.18;;;0.90;;
37609;SDS011;23457;51.966;8.230;2022-09-09T10:57:37;5.90;;;1.08;;
37609;SDS011;23457;51.966;8.230;2022-09-09T11:03:00;5.90;;;1.38;;
37609;SDS011;23457;51.966;8.230;2022-09-09T11:08:19;8.13;;;1.70;;
37609;SDS011;23457;51.966;8.230;2022-09-09T11:10:54;5.40;;;1.35;;
37609;SDS011;23457;51.966;8.230;2022-09-09T11:21:53;6.55;;;1.35;;
37609;SDS011;23457;51.966;8.230;2022-09-09T11:24:24;4.68;;;1.20;;
37609;SDS011;23457;51.966;8.230;2022-09-09T11:27:13;7.30;;;1.20;;
37609;SDS011;23457;51.966;8.230;2022-09-09T11:35:38;6.88;;;1.38;;
37609;SDS011;23457;51.966;8.230;2022-09-09T11:41:17;5.68;;;1.30;;
37609;SDS011;23457;51.966;8.230;2022-09-09T11:43:56;2.40;;;0.90;;
37609;SDS011;23457;51.966;8.230;2022-09-09T11:46:31;4.82;;;1.10;;
37609;SDS011;23457;51.966;8.230;2022-09-09T11:49:05;3.35;;;1.08;;
37609;SDS011;23457;51.966;8.230;2022-09-09T11:51:49;3.15;;;0.85;;
37609;SDS011;23457;51.966;8.230;2022-09-09T11:54:32;4.80;;;1.33;;
37609;SDS011;23457;51.966;8.230;2022-09-09T11:57:44;4.15;;;1.13;;
37609;SDS011;23457;51.966;8.230;2022-09-09T12:00:04;4.25;;;1.15;;
37609;SDS011;23457;51.966;8.230;2022-09-09T12:02:32;4.50;;;1.05;;
37609;SDS011;23457;51.966;8.230;2022-09-09T12:05:05;7.05;;;1.23;;
37609;SDS011;23457;51.966;8.230;2022-09-09T12:07:35;6.60;;;1.20;;
37609;SDS011;23457;51.966;8.230;2022-09-09T12:12:52;4.82;;;1.15;;
37609;SDS011;23457;51.966;8.230;2022-09-09T12:15:23;5.40;;;1.00;;
37609;SDS011;23457;51.966;8.230;2022-09-09T12:17:58;4.38;;;0.98;;
37609;SDS011;23457;51.966;8.230;2022-09-09T12:20:38;5.13;;;1.00;;
37609;SDS011;23457;51.966;8.230;2022-09-09T12:33:47;5.32;;;1.60;;
37609;SDS011;23457;51.966;8.230;2022-09-09T12:36:15;6.57;;;1.10;;
37609;SDS011;23457;51.966;8.230;2022-09-09T12:38:45;3.80;;;1.20;;
37609;SDS011;23457;51.966;8.230;2022-09-09T12:41:20;4.28;;;1.52;;
37609;SDS011;23457;51.966;8.230;2022-09-09T12:43:49;4.95;;;1.30;;
37609;SDS011;23457;51.966;8.230;2022-09-09T12:51:54;5.30;;;2.00;;
37609;SDS011;23457;51.966;8.230;2022-09-09T12:54:23;1.85;;;1.30;;
37609;SDS011;23457;51.966;8.230;2022-09-09T12:56:50;3.08;;;1.10;;
37609;SDS011;23457;51.966;8.230;2022-09-09T12:59:21;2.55;;;0.90;;
37609;SDS011;23457;51.966;8.230;2022-09-09T13:01:56;2.58;;;0.80;;
37609;SDS011;23457;51.966;8.230;2022-09-09T13:04:24;4.60;;;0.85;;
37609;SDS011;23457;51.966;8.230;2022-09-09T13:06:51;5.25;;;0.70;;
37609;SDS011;23457;51.966;8.230;2022-09-09T13:09:18;5.03;;;1.20;;
37609;SDS011;23457;51.966;8.230;2022-09-09T13:11:47;5.22;;;0.77;;
37609;SDS011;23457;51.966;8.230;2022-09-09T13:14:19;2.17;;;0.80;;
37609;SDS011;23457;51.966;8.230;2022-09-09T13:16:58;4.40;;;0.90;;
37609;SDS011;23457;51.966;8.230;2022-09-09T13:19:28;3.22;;;0.80;;
37609;SDS011;23457;51.966;8.230;2022-09-09T13:21:57;6.20;;;1.15;;
37609;SDS011;23457;51.966;8.230;2022-09-09T13:24:26;2.75;;;0.82;;
37609;SDS011;23457;51.966;8.230;2022-09-09T13:26:58;4.18;;;0.68;;
37609;SDS011;23457;51.966;8.230;2022-09-09T13:29:31;3.10;;;0.93;;
37609;SDS011;23457;51.966;8.230;2022-09-09T13:32:05;5.85;;;0.70;;
37609;SDS011;23457;51.966;8.230;2022-09-09T13:34:38;3.53;;;0.80;;
37609;SDS011;23457;51.966;8.230;2022-09-09T13:37:18;2.50;;;1.00;;
37609;SDS011;23457;51.966;8.230;2022-09-09T13:39:55;3.60;;;0.80;;
37609;SDS011;23457;51.966;8.230;2022-09-09T13:42:26;3.20;;;0.90;;
37609;SDS011;23457;51.966;8.230;2022-09-09T13:44:55;2.70;;;0.88;;
37609;SDS011;23457;51.966;8.230;2022-09-09T13:47:31;5.88;;;1.27;;
37609;SDS011;23457;51.966;8.230;2022-09-09T13:50:15;3.83;;;0.75;;
37609;SDS011;23457;51.966;8.230;2022-09-09T13:52:52;5.80;;;0.77;;
37609;SDS011;23457;51.966;8.230;2022-09-09T13:55:21;4.03;;;0.80;;
37609;SDS011;23457;51.966;8.230;2022-09-09T14:00:18;5.45;;;1.00;;
37609;SDS011;23457;51.966;8.230;2022-09-09T14:02:45;2.53;;;0.82;;
37609;SDS011;23457;51.966;8.230;2022-09-09T14:05:12;2.95;;;0.70;;
37609;SDS011;23457;51.966;8.230;2022-09-09T14:07:39;3.75;;;0.60;;
37609;SDS011;23457;51.966;8.230;2022-09-09T14:10:06;1.88;;;0.60;;
37609;SDS011;23457;51.966;8.230;2022-09-09T14:12:33;2.92;;;0.70;;
37609;SDS011;23457;51.966;8.230;2022-09-09T14:15:00;4.45;;;0.77;;
37609;SDS011;23457;51.966;8.230;2022-09-09T14:17:27;4.13;;;0.80;;
37609;SDS011;23457;51.966;8.230;2022-09-09T14:19:57;3.33;;;0.93;;
37609;SDS011;23457;51.966;8.230;2022-09-09T14:22:24;3.47;;;0.80;;
37609;SDS011;23457;51.966;8.230;2022-09-09T14:24:51;4.82;;;1.05;;
37609;SDS011;23457;51.966;8.230;2022-09-09T14:27:19;3.45;;;0.70;;
37609;SDS011;23457;51.966;8.230;2022-09-09T14:29:45;5.63;;;1.15;;
37609;SDS011;23457;51.966;8.230;2022-09-09T14:32:12;4.50;;;0.77;;
37609;SDS011;23457;51.966;8.230;2022-09-09T14:34:39;4.35;;;0.63;;
37609;SDS011;23457;51.966;8.230;2022-09-09T14:37:06;5.25;;;0.88;;
37609;SDS011;23457;51.966;8.230;2022-09-09T14:39:33;5.15;;;1.15;;
37609;SDS011;23457;51.966;8.230;2022-09-09T14:41:59;3.70;;;0.93;;
37609;SDS011;23457;51.966;8.230;2022-09-09T14:44:27;3.95;;;1.05;;
37609;SDS011;23457;51.966;8.230;2022-09-09T14:46:53;5.57;;;0.95;;
37609;SDS011;23457;51.966;8.230;2022-09-09T14:49:20;3.38;;;0.88;;
37609;SDS011;23457;51.966;8.230;2022-09-09T14:51:46;3.88;;;0.77;;
37609;SDS011;23457;51.966;8.230;2022-09-09T14:54:13;0.98;;;0.60;;
37609;SDS011;23457;51.966;8.230;2022-09-09T14:56:40;2.88;;;0.75;;
37609;SDS011;23457;51.966;8.230;2022-09-09T14:59:07;3.05;;;0.70;;
37609;SDS011;23457;51.966;8.230;2022-09-09T15:01:34;1.80;;;0.60;;
37609;SDS011;23457;51.966;8.230;2022-09-09T15:04:02;3.50;;;0.70;;
37609;SDS011;23457;51.966;8.230;2022-09-09T15:08:59;2.13;;;0.80;;
37609;SDS011;23457;51.966;8.230;2022-09-09T15:11:27;3.55;;;0.73;;
37609;SDS011;23457;51.966;8.230;2022-09-09T15:13:56;3.28;;;0.80;;
37609;SDS011;23457;51.966;8.230;2022-09-09T15:16:24;4.63;;;0.93;;
37609;SDS011;23457;51.966;8.230;2022-09-09T15:18:54;2.63;;;0.63;;
37609;SDS011;23457;51.966;8.230;2022-09-09T15:21:23;4.07;;;0.88;;
37609;SDS011;23457;51.966;8.230;2022-09-09T15:23:51;2.22;;;0.90;;
37609;SDS011;23457;51.966;8.230;2022-09-09T15:26:18;5.70;;;1.00;;
37609;SDS011;23457;51.966;8.230;2022-09-09T15:28:47;5.68;;;1.10;;
37609;SDS011;23457;51.966;8.230;2022-09-09T15:33:48;2.70;;;0.85;;
37609;SDS011;23457;51.966;8.230;2022-09-09T15:38:44;3.60;;;0.85;;
37609;SDS011;23457;51.966;8.230;2022-09-09T15:41:15;2.78;;;0.70;;
37609;SDS011;23457;51.966;8.230;2022-09-09T15:43:46;1.92;;;0.80;;
37609;SDS011;23457;51.966;8.230;2022-09-09T15:46:34;3.72;;;0.90;;
37609;SDS011;23457;51.966;8.230;2022-09-09T15:49:08;2.55;;;0.88;;
37609;SDS011;23457;51.966;8.230;2022-09-09T15:51:44;4.47;;;0.88;;
37609;SDS011;23457;51.966;8.230;2022-09-09T15:54:14;3.28;;;0.75;;
37609;SDS011;23457;51.966;8.230;2022-09-09T15:56:46;4.82;;;1.00;;
37609;SDS011;23457;51.966;8.230;2022-09-09T15:59:16;2.67;;;0.80;;
37609;SDS011;23457;51.966;8.230;2022-09-09T16:01:42;3.25;;;0.70;;
37609;SDS011;23457;51.966;8.230;2022-09-09T16:04:10;5.57;;;1.15;;
37609;SDS011;23457;51.966;8.230;2022-09-09T16:06:36;5.03;;;1.00;;
37609;SDS011;23457;51.966;8.230;2022-09-09T16:09:04;3.28;;;0.73;;
37609;SDS011;23457;51.966;8.230;2022-09-09T16:11:32;4.30;;;0.75;;
37609;SDS011;23457;51.966;8.230;2022-09-09T16:14:01;3.35;;;0.90;;
37609;SDS011;23457;51.966;8.230;2022-09-09T16:16:28;4.68;;;0.70;;
37609;SDS011;23457;51.966;8.230;2022-09-09T16:18:57;2.55;;;0.98;;
37609;SDS011;23457;51.966;8.230;2022-09-09T16:21:35;2.88;;;0.80;;
37609;SDS011;23457;51.966;8.230;2022-09-09T16:24:04;1.85;;;0.77;;
37609;SDS011;23457;51.966;8.230;2022-09-09T16:26:33;2.45;;;0.80;;
37609;SDS011;23457;51.966;8.230;2022-09-09T16:29:01;3.28;;;1.08;;
37609;SDS011;23457;51.966;8.230;2022-09-09T16:31:29;1.60;;;0.90;;
37609;SDS011;23457;51.966;8.230;2022-09-09T16:33:58;3.03;;;0.85;;
37609;SDS011;23457;51.966;8.230;2022-09-09T16:36:28;2.65;;;0.90;;
37609;SDS011;23457;51.966;8.230;2022-09-09T16:39:00;2.80;;;0.90;;
37609;SDS011;23457;51.966;8.230;2022-09-09T16:41:29;1.73;;;0.70;;
37609;SDS011;23457;51.966;8.230;2022-09-09T16:43:57;2.53;;;0.70;;
37609;SDS011;23457;51.966;8.230;2022-09-09T16:46:26;4.28;;;0.80;;
37609;SDS011;23457;51.966;8.230;2022-09-09T16:48:55;3.35;;;1.10;;
37609;SDS011;23457;51.966;8.230;2022-09-09T16:51:30;2.13;;;0.80;;
37609;SDS011;23457;51.966;8.230;2022-09-09T16:54:00;3.40;;;0.95;;
37609;SDS011;23457;51.966;8.230;2022-09-09T16:56:29;2.10;;;0.75;;
37609;SDS011;23457;51.966;8.230;2022-09-09T16:59:00;2.97;;;0.90;;
37609;SDS011;23457;51.966;8.230;2022-09-09T17:01:29;3.35;;;1.10;;
37609;SDS011;23457;51.966;8.230;2022-09-09T17:03:59;4.45;;;1.05;;
37609;SDS011;23457;51.966;8.230;2022-09-09T17:06:28;2.58;;;0.93;;
37609;SDS011;23457;51.966;8.230;2022-09-09T17:08:57;2.70;;;0.90;;
37609;SDS011;23457;51.966;8.230;2022-09-09T17:11:25;2.03;;;0.90;;
37609;SDS011;23457;51.966;8.230;2022-09-09T17:13:52;3.47;;;1.20;;
37609;SDS011;23457;51.966;8.230;2022-09-09T17:16:19;4.97;;;1.45;;
37609;SDS011;23457;51.966;8.230;2022-09-09T17:18:50;4.72;;;0.70;;
37609;SDS011;23457;51.966;8.230;2022-09-09T17:21:18;3.08;;;0.98;;
37609;SDS011;23457;51.966;8.230;2022-09-09T17:23:47;2.33;;;1.00;;
37609;SDS011;23457;51.966;8.230;2022-09-09T17:26:18;2.65;;;0.70;;
37609;SDS011;23457;51.966;8.230;2022-09-09T17:28:47;2.60;;;0.75;;
37609;SDS011;23457;51.966;8.230;2022-09-09T17:31:15;3.38;;;0.90;;
37609;SDS011;23457;51.966;8.230;2022-09-09T17:33:44;7.72;;;0.98;;
37609;SDS011;23457;51.966;8.230;2022-09-09T17:36:13;3.05;;;0.80;;
37609;SDS011;23457;51.966;8.230;2022-09-09T17:38:43;2.85;;;1.05;;
37609;SDS011;23457;51.966;8.230;2022-09-09T17:43:48;1.98;;;0.90;;
37609;SDS011;23457;51.966;8.230;2022-09-09T17:46:19;1.60;;;0.65;;
37609;SDS011;23457;51.966;8.230;2022-09-09T17:49:04;3.10;;;0.55;;
37609;SDS011;23457;51.966;8.230;2022-09-09T17:51:33;4.60;;;1.20;;
37609;SDS011;23457;51.966;8.230;2022-09-09T17:54:01;2.53;;;1.05;;
37609;SDS011;23457;51.966;8.230;2022-09-09T17:56:33;5.35;;;0.82;;